Time;durP1;ratioP1;P1;durP2;ratioP2;P2;SDS_P1;SDS_P2;PMS_P1;PMS_P2;Temp;Humidity;BMP_temperature;BMP_pressure;BME280_temperature;BME280_humidity;BME280_pressure;Samples;Min_cycle;Max_cycle;Signal;HPM_P1;HPM_P2
2022/11/07 00:01:30;;;;;;;5.33;1.63;;;10.40;52.00;;;;;;5083324;27;46340;-65
2022/11/07 00:03:56;;;;;;;2.13;1.40;;;10.50;52.10;;;;;;5079587;27;46515;-65
2022/11/07 00:06:21;;;;;;;3.43;1.50;;;10.50;51.80;;;;;;5084754;27;46389;-65
2022/11/07 00:08:48;;;;;;;3.70;1.70;;;10.50;51.60;;;;;;5082916;27;46646;-66
2022/11/07 00:11:13;;;;;;;2.00;1.40;;;10.60;51.50;;;;;;5085075;27;46324;-63
2022/11/07 00:13:39;;;;;;;5.87;1.93;;;10.60;51.20;;;;;;5084599;27;46495;-65
2022/11/07 00:16:07;;;;;;;2.37;1.40;;;10.70;51.10;;;;;;5083517;27;46485;-63
2022/11/07 00:18:33;;;;;;;2.67;1.50;;;10.70;51.00;;;;;;5114304;27;48656;-66
2022/11/07 00:21:03;;;;;;;5.93;1.53;;;10.70;50.90;;;;;;5087433;27;46357;-65
2022/11/07 00:23:29;;;;;;;2.30;1.33;;;10.70;50.70;;;;;;5084515;27;46512;-65
2022/11/07 00:26:04;;;;;;;3.57;1.80;;;10.70;50.60;;;;;;5079255;27;46019;-67
2022/11/07 00:28:37;;;;;;;2.53;1.30;;;10.80;50.50;;;;;;5085090;27;47835;-65
2022/11/07 00:31:04;;;;;;;2.10;1.40;;;10.80;50.20;;;;;;5082949;27;46487;-66
2022/11/07 00:33:29;;;;;;;2.83;1.47;;;10.80;50.00;;;;;;5085839;27;46423;-63
2022/11/07 00:35:55;;;;;;;2.50;1.50;;;10.90;50.00;;;;;;5086419;27;45890;-64
2022/11/07 00:38:21;;;;;;;3.73;1.80;;;10.90;49.80;;;;;;5087318;27;46487;-64
2022/11/07 00:41:00;;;;;;;3.00;1.40;;;10.90;49.50;;;;;;5089026;27;46714;-65
2022/11/07 00:43:26;;;;;;;3.40;1.63;;;10.90;49.40;;;;;;5089975;27;47287;-63
2022/11/07 00:45:52;;;;;;;2.93;1.60;;;10.90;49.50;;;;;;5087030;27;46386;-65
2022/11/07 00:48:18;;;;;;;2.73;1.53;;;10.80;49.70;;;;;;5086499;27;46470;-63
2022/11/07 00:50:43;;;;;;;4.43;1.43;;;10.80;50.00;;;;;;5085593;27;46341;-65
2022/11/07 00:53:09;;;;;;;2.77;1.80;;;10.70;50.20;;;;;;5086453;27;46351;-65
2022/11/07 00:55:34;;;;;;;3.77;1.43;;;10.70;50.50;;;;;;5083752;27;46859;-64
2022/11/07 00:58:00;;;;;;;3.40;1.80;;;10.60;50.60;;;;;;5088332;27;46450;-65
2022/11/07 01:00:26;;;;;;;4.07;1.63;;;10.60;50.00;;;;;;5086944;27;46396;-66
2022/11/07 01:05:36;;;;;;;2.93;1.60;;;10.60;51.00;;;;;;5086739;27;46360;-65
2022/11/07 01:08:01;;;;;;;3.80;1.73;;;10.60;51.20;;;;;;5084334;27;46775;-63
2022/11/07 01:10:27;;;;;;;2.80;1.60;;;10.60;51.40;;;;;;5083687;27;46643;-64
2022/11/07 01:12:52;;;;;;;2.70;1.50;;;10.60;51.30;;;;;;5085666;27;46408;-64
2022/11/07 01:15:18;;;;;;;4.50;1.70;;;10.60;51.30;;;;;;5088993;27;46557;-66
2022/11/07 01:17:44;;;;;;;4.20;1.77;;;10.60;51.20;;;;;;5081604;27;47533;-65
2022/11/07 01:20:10;;;;;;;3.20;1.80;;;10.60;51.60;;;;;;5083362;27;46217;-65
2022/11/07 01:22:36;;;;;;;6.40;2.03;;;10.60;51.70;;;;;;5088206;27;46485;-66
2022/11/07 01:25:01;;;;;;;2.80;1.60;;;10.60;52.20;;;;;;5087365;27;46411;-64
2022/11/07 01:27:27;;;;;;;2.70;1.70;;;10.60;52.20;;;;;;5081557;27;46617;-67
2022/11/07 01:29:52;;;;;;;3.73;1.70;;;10.60;51.10;;;;;;5082842;27;46723;-66
2022/11/07 01:32:18;;;;;;;2.50;1.60;;;10.60;52.20;;;;;;5087098;27;46567;-64
2022/11/07 01:34:43;;;;;;;2.93;1.67;;;10.70;52.30;;;;;;5085756;27;46467;-65
2022/11/07 01:37:09;;;;;;;3.60;1.80;;;10.70;52.30;;;;;;5086534;27;46529;-65
2022/11/07 01:39:36;;;;;;;3.30;1.60;;;10.80;52.40;;;;;;5083997;27;46459;-67
2022/11/07 01:42:02;;;;;;;3.20;1.70;;;10.80;52.40;;;;;;5083667;27;46481;-64
2022/11/07 01:44:28;;;;;;;2.37;1.47;;;10.80;52.30;;;;;;5085699;27;46643;-64
2022/11/07 01:46:58;;;;;;;3.40;1.87;;;10.90;52.50;;;;;;5088339;27;47437;-66
2022/11/07 01:49:29;;;;;;;9.33;1.73;;;10.80;52.40;;;;;;5084552;27;47486;-65
2022/11/07 01:52:03;;;;;;;2.70;1.90;;;10.80;52.40;;;;;;5084840;27;46353;-64
2022/11/07 01:54:47;;;;;;;2.83;1.70;;;10.70;52.30;;;;;;5087450;27;46230;-66
2022/11/07 01:57:24;;;;;;;3.03;1.70;;;10.70;53.10;;;;;;5085619;27;46297;-66
2022/11/07 01:59:52;;;;;;;4.13;2.10;;;10.60;52.80;;;;;;5082717;27;46458;-64
2022/11/07 02:02:18;;;;;;;3.50;1.60;;;10.60;53.80;;;;;;5081956;27;45922;-65
2022/11/07 02:04:44;;;;;;;2.43;1.57;;;10.60;54.10;;;;;;5089799;27;46270;-64
2022/11/07 02:07:19;;;;;;;3.80;2.00;;;10.50;54.30;;;;;;5087767;27;46657;-65
2022/11/07 02:09:45;;;;;;;4.13;2.00;;;10.40;53.80;;;;;;5089496;27;46791;-66
2022/11/07 02:12:12;;;;;;;3.93;2.30;;;10.40;54.90;;;;;;5080863;27;46269;-65
2022/11/07 02:14:38;;;;;;;3.30;1.70;;;10.40;55.00;;;;;;5078579;27;46517;-64
2022/11/07 02:17:04;;;;;;;5.43;1.80;;;10.40;55.10;;;;;;5086280;27;47702;-64
2022/11/07 02:19:55;;;;;;;3.90;1.90;;;10.40;55.20;;;;;;5088964;27;46375;-65
2022/11/07 02:22:37;;;;;;;3.33;2.00;;;10.40;55.50;;;;;;5082867;27;46491;-64
2022/11/07 02:25:22;;;;;;;3.23;1.97;;;10.30;55.70;;;;;;5084110;27;46443;-63
2022/11/07 02:27:53;;;;;;;3.07;2.00;;;10.20;56.00;;;;;;5084661;27;47539;-65
2022/11/07 02:30:22;;;;;;;3.03;1.60;;;10.10;56.20;;;;;;5087122;27;46474;-66
2022/11/07 02:32:48;;;;;;;5.53;1.80;;;10.00;56.80;;;;;;5086301;27;46388;-65
2022/11/07 02:35:39;;;;;;;2.63;1.53;;;9.90;57.90;;;;;;5082979;27;46342;-65
2022/11/07 02:38:22;;;;;;;3.50;1.90;;;9.80;58.00;;;;;;5082744;27;47650;-65
2022/11/07 02:40:58;;;;;;;3.73;2.10;;;9.20;57.80;;;;;;5084236;27;46131;-66
2022/11/07 02:43:27;;;;;;;4.50;2.30;;;9.70;58.60;;;;;;5089559;27;46511;-64
2022/11/07 02:45:56;;;;;;;5.20;1.90;;;9.70;58.50;;;;;;5080144;27;46815;-65
2022/11/07 02:48:26;;;;;;;6.90;1.83;;;9.80;58.20;;;;;;5082352;27;46494;-64
2022/11/07 02:50:52;;;;;;;3.53;1.80;;;10.00;55.70;;;;;;5085257;27;46522;-65
2022/11/07 02:53:17;;;;;;;4.00;1.50;;;10.00;56.50;;;;;;5086789;27;46755;-65
2022/11/07 02:55:43;;;;;;;3.13;2.10;;;10.00;56.20;;;;;;5084343;27;46661;-64
2022/11/07 02:58:08;;;;;;;4.53;2.40;;;10.10;56.20;;;;;;5085298;27;47504;-67
2022/11/07 03:00:34;;;;;;;2.93;1.77;;;10.10;56.10;;;;;;5087747;27;46349;-66
2022/11/07 03:02:59;;;;;;;3.00;1.97;;;10.20;56.20;;;;;;5086293;27;46486;-65
2022/11/07 03:05:25;;;;;;;5.77;2.10;;;10.20;56.10;;;;;;5084618;27;46331;-65
2022/11/07 03:07:51;;;;;;;2.83;1.70;;;10.30;56.10;;;;;;5083839;27;47489;-65
2022/11/07 03:10:17;;;;;;;3.10;2.13;;;10.30;55.80;;;;;;5088218;27;46737;-64
2022/11/07 03:12:43;;;;;;;4.20;1.50;;;10.30;55.70;;;;;;5083785;27;46376;-64
2022/11/07 03:15:09;;;;;;;6.43;2.20;;;10.30;55.80;;;;;;5083271;27;46415;-65
2022/11/07 03:17:35;;;;;;;3.13;1.50;;;10.30;55.90;;;;;;5081217;27;47747;-64
2022/11/07 03:20:00;;;;;;;3.37;2.03;;;10.30;56.10;;;;;;5086370;27;46732;-65
2022/11/07 03:22:26;;;;;;;3.53;1.97;;;10.20;56.20;;;;;;5086392;27;46563;-65
2022/11/07 03:24:52;;;;;;;6.47;2.90;;;10.10;56.30;;;;;;5083870;27;46513;-64
2022/11/07 03:27:18;;;;;;;4.87;2.20;;;10.00;56.40;;;;;;5080870;27;46485;-65
2022/11/07 03:29:44;;;;;;;4.33;2.10;;;9.70;56.50;;;;;;5085245;27;46405;-64
2022/11/07 03:32:10;;;;;;;3.80;2.03;;;9.90;57.60;;;;;;5086268;27;46772;-65
2022/11/07 03:34:36;;;;;;;2.70;1.77;;;9.80;57.80;;;;;;5081454;27;46364;-64
2022/11/07 03:37:02;;;;;;;6.30;2.83;;;9.70;58.20;;;;;;5083982;27;46542;-66
2022/11/07 03:39:28;;;;;;;5.20;3.60;;;9.50;58.50;;;;;;5085195;27;45722;-65
2022/11/07 03:41:53;;;;;;;4.77;3.07;;;9.40;57.90;;;;;;5084241;27;46397;-66
2022/11/07 03:44:19;;;;;;;7.30;3.50;;;9.30;59.30;;;;;;5086115;27;45885;-64
2022/11/07 03:46:44;;;;;;;5.20;3.63;;;9.20;59.40;;;;;;5087838;27;46601;-64
2022/11/07 03:49:10;;;;;;;7.00;3.63;;;9.10;59.60;;;;;;5081507;27;46294;-66
2022/11/07 03:51:35;;;;;;;5.20;2.60;;;9.00;58.80;;;;;;5081603;27;46367;-64
2022/11/07 03:54:01;;;;;;;5.43;2.43;;;8.90;60.00;;;;;;5082387;27;46537;-64
2022/11/07 03:56:27;;;;;;;4.43;2.50;;;8.80;60.00;;;;;;5085741;27;47440;-67
2022/11/07 03:58:52;;;;;;;3.27;2.10;;;8.70;60.00;;;;;;5082444;27;46491;-64
2022/11/07 04:01:18;;;;;;;4.93;2.20;;;8.50;59.20;;;;;;5079611;27;46453;-64
2022/11/07 04:03:43;;;;;;;4.10;2.47;;;8.40;60.30;;;;;;5083945;27;46825;-65
2022/11/07 04:06:09;;;;;;;4.90;2.67;;;8.40;60.40;;;;;;5085656;27;47139;-67
2022/11/07 04:08:35;;;;;;;4.30;2.70;;;8.40;60.50;;;;;;5083289;27;46489;-66
2022/11/07 04:11:00;;;;;;;3.63;2.27;;;8.30;60.30;;;;;;5077752;27;46808;-65
2022/11/07 04:18:55;;;;;;;4.10;2.10;;;8.20;60.50;;;;;;5082506;27;46398;-66
2022/11/07 04:21:21;;;;;;;3.63;1.90;;;8.20;59.60;;;;;;5083564;27;45838;-66
2022/11/07 04:23:47;;;;;;;3.10;2.00;;;8.20;60.60;;;;;;5083841;27;46344;-65
2022/11/07 04:28:57;;;;;;;4.60;2.30;;;8.10;60.70;;;;;;5087212;27;46294;-64
2022/11/07 04:31:22;;;;;;;4.50;2.30;;;8.00;59.70;;;;;;5084988;27;45745;-65
2022/11/07 04:33:48;;;;;;;4.57;1.80;;;8.10;60.90;;;;;;5084658;27;46474;-63
2022/11/07 04:36:13;;;;;;;2.47;1.83;;;8.00;60.80;;;;;;5085342;27;46915;-65
2022/11/07 04:38:39;;;;;;;3.63;2.00;;;8.00;60.90;;;;;;5092538;27;46227;-65
2022/11/07 04:41:05;;;;;;;4.30;2.23;;;8.00;60.00;;;;;;5088921;27;46349;-66
2022/11/07 04:43:30;;;;;;;3.47;1.93;;;8.00;60.90;;;;;;5085218;27;46384;-65
2022/11/07 04:45:56;;;;;;;3.87;1.93;;;8.00;60.90;;;;;;5087587;27;47650;-66
2022/11/07 04:48:22;;;;;;;3.03;1.70;;;8.00;61.10;;;;;;5085915;27;46320;-64
2022/11/07 04:50:48;;;;;;;3.37;1.90;;;8.00;61.20;;;;;;5088454;27;46467;-64
2022/11/07 04:53:17;;;;;;;6.07;2.27;;;8.00;61.30;;;;;;5083943;27;46344;-64
2022/11/07 04:55:43;;;;;;;4.40;2.60;;;7.90;61.30;;;;;;5085024;27;47800;-64
2022/11/07 04:58:09;;;;;;;5.40;2.60;;;8.00;61.50;;;;;;5089358;27;46937;-66
2022/11/07 05:00:35;;;;;;;2.50;1.60;;;7.80;60.50;;;;;;5082336;27;46423;-65
2022/11/07 05:03:01;;;;;;;2.70;1.70;;;7.70;61.60;;;;;;5090658;27;46705;-65
2022/11/07 05:05:27;;;;;;;3.27;2.00;;;7.60;61.70;;;;;;5083063;27;46404;-67
2022/11/07 05:07:52;;;;;;;3.67;2.27;;;7.50;62.00;;;;;;5088571;27;46615;-65
2022/11/07 05:10:22;;;;;;;3.70;2.53;;;7.40;62.20;;;;;;5088017;27;46496;-66
2022/11/07 05:12:48;;;;;;;4.20;2.63;;;7.30;62.30;;;;;;5086102;27;46607;-64
2022/11/07 05:15:14;;;;;;;5.57;2.90;;;7.20;62.30;;;;;;5086433;27;46437;-67
2022/11/07 05:17:39;;;;;;;6.87;3.47;;;7.20;62.40;;;;;;5085291;27;45854;-64
2022/11/07 05:20:06;;;;;;;7.60;3.80;;;7.20;62.50;;;;;;5091179;27;46633;-65
2022/11/07 05:25:16;;;;;;;7.80;2.17;;;7.20;62.90;;;;;;5087633;27;46660;-64
2022/11/07 05:27:42;;;;;;;4.53;2.27;;;7.10;62.90;;;;;;5089045;27;46398;-64
2022/11/07 05:30:10;;;;;;;5.47;2.10;;;7.20;61.90;;;;;;5084598;27;46528;-64
2022/11/07 05:32:37;;;;;;;4.23;1.97;;;7.10;62.90;;;;;;5086186;27;46751;-66
2022/11/07 05:35:04;;;;;;;3.63;2.13;;;7.00;62.80;;;;;;5085736;27;46416;-66
2022/11/07 05:37:30;;;;;;;23.83;11.33;;;7.00;62.80;;;;;;5085571;27;45880;-64
2022/11/07 05:39:55;;;;;;;5.63;2.53;;;6.90;61.70;;;;;;5085432;27;46494;-66
2022/11/07 05:42:21;;;;;;;10.80;5.73;;;6.90;62.70;;;;;;5085230;27;46022;-65
2022/11/07 05:44:46;;;;;;;5.27;2.60;;;7.10;62.90;;;;;;5086234;27;46547;-65
2022/11/07 05:47:12;;;;;;;3.80;2.20;;;6.90;62.80;;;;;;5085082;27;45925;-66
2022/11/07 05:49:37;;;;;;;3.70;2.50;;;6.90;62.80;;;;;;5086424;27;46672;-66
2022/11/07 05:52:03;;;;;;;4.00;2.10;;;6.70;61.90;;;;;;5087871;27;45964;-64
2022/11/07 05:54:29;;;;;;;4.97;2.47;;;6.70;63.30;;;;;;5085946;27;46762;-62
2022/11/07 05:56:56;;;;;;;4.43;2.30;;;6.70;63.10;;;;;;5081306;27;46497;-64
2022/11/07 05:59:22;;;;;;;3.83;2.00;;;6.80;62.90;;;;;;5087572;27;46488;-65
2022/11/07 06:01:47;;;;;;;4.20;2.10;;;6.70;61.50;;;;;;5085549;27;46494;-63
2022/11/07 06:04:13;;;;;;;4.70;2.47;;;6.80;62.70;;;;;;5116230;27;48301;-66
2022/11/07 06:06:38;;;;;;;3.63;2.10;;;6.80;62.60;;;;;;5088163;27;46617;-65
2022/11/07 06:09:04;;;;;;;3.17;2.00;;;6.80;62.60;;;;;;5085536;27;45941;-64
2022/11/07 06:11:31;;;;;;;3.30;1.70;;;6.80;62.60;;;;;;5083644;27;46320;-65
2022/11/07 06:13:57;;;;;;;5.33;1.70;;;6.80;62.60;;;;;;5089849;27;46436;-65
2022/11/07 06:16:23;;;;;;;2.83;1.47;;;6.90;62.90;;;;;;5083529;27;46481;-64
2022/11/07 06:18:49;;;;;;;3.53;1.73;;;7.10;62.30;;;;;;5080788;27;46233;-63
2022/11/07 06:21:15;;;;;;;5.10;1.60;;;7.40;60.60;;;;;;5080714;27;46640;-64
2022/11/07 06:23:41;;;;;;;4.43;2.00;;;7.50;61.30;;;;;;5088163;27;47373;-65
2022/11/07 06:26:07;;;;;;;2.97;1.70;;;7.60;60.90;;;;;;5084788;27;46442;-63
2022/11/07 06:28:33;;;;;;;4.83;2.10;;;7.70;60.90;;;;;;5086028;27;46458;-65
2022/11/07 06:31:00;;;;;;;3.07;1.73;;;7.80;60.00;;;;;;5084384;27;46637;-65
2022/11/07 06:33:25;;;;;;;5.23;2.43;;;7.80;61.10;;;;;;5084618;27;47529;-63
2022/11/07 06:35:51;;;;;;;6.70;3.70;;;7.80;61.10;;;;;;5083499;27;46384;-64
2022/11/07 06:38:17;;;;;;;4.80;2.60;;;7.80;61.40;;;;;;5081036;27;46807;-65
2022/11/07 06:40:42;;;;;;;12.13;2.83;;;7.80;61.60;;;;;;5083337;27;46725;-66
2022/11/07 06:43:13;;;;;;;3.80;2.30;;;7.90;61.70;;;;;;5082864;27;46428;-64
2022/11/07 06:45:40;;;;;;;3.00;1.90;;;7.90;61.60;;;;;;5087300;27;46322;-66
2022/11/07 06:48:06;;;;;;;9.03;2.00;;;8.00;61.70;;;;;;5087081;27;46342;-66
2022/11/07 06:50:32;;;;;;;5.87;2.10;;;8.10;61.50;;;;;;5079134;27;46324;-65
2022/11/07 06:53:07;;;;;;;4.53;2.67;;;8.20;61.50;;;;;;5080911;27;46602;-65
2022/11/07 06:55:34;;;;;;;4.90;2.40;;;8.20;61.30;;;;;;5080105;27;46258;-66
2022/11/07 06:58:01;;;;;;;2.87;1.97;;;8.30;61.30;;;;;;5083957;27;46479;-66
2022/11/07 07:00:28;;;;;;;5.20;1.80;;;8.40;61.10;;;;;;5085012;27;46819;-64
2022/11/07 07:02:53;;;;;;;2.80;1.50;;;8.50;61.10;;;;;;5081419;27;46260;-64
2022/11/07 07:05:19;;;;;;;5.50;2.30;;;8.50;61.00;;;;;;5082325;27;46456;-65
2022/11/07 07:07:45;;;;;;;4.40;1.97;;;8.50;61.00;;;;;;5080811;27;46440;-65
2022/11/07 07:10:10;;;;;;;4.87;2.57;;;8.60;61.00;;;;;;5083853;27;45794;-65
2022/11/07 07:12:36;;;;;;;4.07;2.17;;;8.70;61.10;;;;;;5082598;27;47021;-66
2022/11/07 07:15:02;;;;;;;2.53;1.70;;;8.80;61.00;;;;;;5081037;27;46460;-66
2022/11/07 07:17:27;;;;;;;3.20;2.13;;;8.90;61.00;;;;;;5083148;27;46520;-65
2022/11/07 07:19:53;;;;;;;3.40;2.00;;;9.10;59.90;;;;;;5083750;27;46318;-63
2022/11/07 07:22:18;;;;;;;5.17;2.33;;;9.10;60.80;;;;;;5083950;27;46698;-67
2022/11/07 07:24:44;;;;;;;3.07;1.93;;;9.20;60.70;;;;;;5080580;27;46484;-64
2022/11/07 07:27:10;;;;;;;3.73;1.50;;;9.30;60.60;;;;;;5084749;27;46387;-65
2022/11/07 07:29:35;;;;;;;2.10;1.50;;;9.50;60.60;;;;;;5084868;27;46538;-63
2022/11/07 07:32:01;;;;;;;2.37;1.47;;;9.50;59.40;;;;;;5083512;27;46408;-63
2022/11/07 07:34:27;;;;;;;3.10;1.73;;;9.70;60.50;;;;;;5083921;27;46309;-64
2022/11/07 07:36:53;;;;;;;3.60;1.70;;;9.80;60.20;;;;;;5080213;27;46826;-64
2022/11/07 07:39:18;;;;;;;3.60;1.50;;;9.90;60.20;;;;;;5084236;27;46366;-63
2022/11/07 07:41:44;;;;;;;3.17;1.80;;;10.00;58.20;;;;;;5080527;27;47227;-62
2022/11/07 07:44:10;;;;;;;2.90;1.50;;;10.10;59.20;;;;;;5081567;27;46424;-63
2022/11/07 07:46:35;;;;;;;4.60;1.40;;;10.20;59.00;;;;;;5114178;27;46435;-65
2022/11/07 07:49:01;;;;;;;2.77;1.47;;;10.30;58.70;;;;;;5088934;27;46436;-63
2022/11/07 07:51:27;;;;;;;25.43;13.13;;;10.40;58.50;;;;;;5084441;27;47442;-63
2022/11/07 07:53:52;;;;;;;2.03;1.37;;;10.60;58.50;;;;;;5085186;27;46128;-64
2022/11/07 07:56:18;;;;;;;4.40;1.70;;;10.70;58.20;;;;;;5085334;27;46570;-65
2022/11/07 07:58:44;;;;;;;2.23;1.30;;;10.80;58.10;;;;;;5088248;27;46518;-64
2022/11/07 08:01:10;;;;;;;2.10;1.20;;;10.90;57.90;;;;;;5085920;27;46648;-65
2022/11/07 08:03:36;;;;;;;4.30;1.40;;;10.90;57.80;;;;;;5088173;27;46544;-63
2022/11/07 08:06:04;;;;;;;5.83;2.77;;;11.00;57.70;;;;;;5085514;27;46412;-66
2022/11/07 08:08:30;;;;;;;4.43;2.60;;;11.00;57.70;;;;;;5089244;27;46377;-64
2022/11/07 08:11:01;;;;;;;3.07;1.50;;;11.10;57.50;;;;;;5087787;27;47451;-64
2022/11/07 08:13:26;;;;;;;2.50;1.40;;;11.20;57.30;;;;;;5090458;27;46392;-65
2022/11/07 08:15:53;;;;;;;3.23;1.20;;;11.30;57.10;;;;;;5089947;27;46020;-62
2022/11/07 08:18:20;;;;;;;4.90;1.63;;;11.50;56.70;;;;;;5083331;27;46514;-65
2022/11/07 08:20:49;;;;;;;2.10;1.20;;;11.60;56.30;;;;;;5087331;27;46286;-64
2022/11/07 08:23:15;;;;;;;7.97;1.63;;;11.80;55.80;;;;;;5088279;27;45862;-64
2022/11/07 08:25:41;;;;;;;4.20;2.30;;;11.90;55.50;;;;;;5085970;27;46483;-63
2022/11/07 08:28:07;;;;;;;6.13;1.40;;;11.90;55.20;;;;;;5085758;27;46677;-63
2022/11/07 08:30:34;;;;;;;2.67;1.53;;;11.90;54.00;;;;;;5080825;27;47427;-65
2022/11/07 08:33:02;;;;;;;7.67;2.40;;;11.80;55.10;;;;;;5087077;27;46342;-66
2022/11/07 08:35:31;;;;;;;5.10;3.10;;;11.80;55.30;;;;;;5087929;27;46429;-63
2022/11/07 08:37:57;;;;;;;6.13;1.87;;;11.80;55.40;;;;;;5085480;27;46652;-64
2022/11/07 08:40:23;;;;;;;3.13;1.30;;;11.80;55.40;;;;;;5086689;27;46878;-64
2022/11/07 08:42:48;;;;;;;4.20;1.60;;;11.90;55.30;;;;;;5085095;27;46150;-65
2022/11/07 08:45:14;;;;;;;3.50;1.50;;;12.00;55.10;;;;;;5087593;27;46753;-63
2022/11/07 08:47:39;;;;;;;11.97;1.70;;;12.10;54.80;;;;;;5087437;27;46418;-63
2022/11/07 08:50:06;;;;;;;2.73;1.30;;;12.20;54.70;;;;;;5085051;27;46744;-65
2022/11/07 08:52:34;;;;;;;4.03;1.30;;;12.30;54.00;;;;;;5080199;27;46440;-65
2022/11/07 08:55:01;;;;;;;2.20;1.20;;;12.30;53.80;;;;;;5087016;27;46619;-64
2022/11/07 08:57:26;;;;;;;3.57;1.57;;;12.30;53.80;;;;;;5086806;27;46597;-63
2022/11/07 08:59:52;;;;;;;2.10;1.13;;;12.50;52.90;;;;;;5085776;27;46448;-64
2022/11/07 09:02:17;;;;;;;3.13;1.30;;;12.50;55.10;;;;;;5081621;27;46459;-64
2022/11/07 09:04:43;;;;;;;3.03;1.70;;;12.60;54.00;;;;;;5084258;27;46600;-63
2022/11/07 09:07:08;;;;;;;2.73;1.30;;;12.70;53.90;;;;;;5084723;27;46534;-64
2022/11/07 09:09:34;;;;;;;2.23;1.40;;;12.80;53.50;;;;;;5082912;27;48035;-63
2022/11/07 09:11:59;;;;;;;3.60;1.30;;;12.90;52.20;;;;;;5083699;27;46493;-64
2022/11/07 09:14:26;;;;;;;3.30;1.20;;;13.00;53.30;;;;;;5085034;27;46516;-65
2022/11/07 09:16:52;;;;;;;2.40;1.40;;;13.10;53.00;;;;;;5086896;27;46529;-64
2022/11/07 09:19:17;;;;;;;3.57;1.50;;;13.20;52.60;;;;;;5120990;27;48756;-63
2022/11/07 09:21:44;;;;;;;2.50;1.40;;;13.40;51.00;;;;;;5083683;27;46255;-65
2022/11/07 09:24:10;;;;;;;2.67;1.27;;;13.60;52.00;;;;;;5077921;27;46423;-64
2022/11/07 09:26:35;;;;;;;3.20;1.27;;;13.70;51.50;;;;;;5083637;27;46731;-64
2022/11/07 09:29:01;;;;;;;3.20;1.20;;;13.80;51.20;;;;;;5085876;27;46735;-62
2022/11/07 09:31:26;;;;;;;3.10;1.50;;;14.00;51.00;;;;;;5082206;27;46436;-63
2022/11/07 09:33:52;;;;;;;3.90;1.83;;;14.10;50.60;;;;;;5082681;27;45930;-65
2022/11/07 09:36:18;;;;;;;3.93;1.37;;;14.20;50.30;;;;;;5084006;27;46681;-65
2022/11/07 09:38:43;;;;;;;2.20;1.40;;;14.20;49.80;;;;;;5084673;27;46486;-66
2022/11/07 09:41:39;;;;;;;2.83;1.37;;;14.30;49.80;;;;;;5079542;27;46395;-65
2022/11/07 09:44:33;;;;;;;3.90;1.23;;;14.30;49.50;;;;;;5080564;27;46154;-64
2022/11/07 09:47:02;;;;;;;3.60;1.37;;;14.30;49.50;;;;;;5078627;27;46497;-64
2022/11/07 09:49:46;;;;;;;3.23;1.20;;;14.30;49.70;;;;;;5085009;27;46662;-64
2022/11/07 09:52:28;;;;;;;6.00;3.23;;;14.10;49.70;;;;;;5082523;27;46625;-66
2022/11/07 09:55:12;;;;;;;4.27;1.70;;;14.00;50.10;;;;;;5081587;27;46483;-63
2022/11/07 09:57:38;;;;;;;3.07;1.30;;;14.00;50.10;;;;;;5080544;27;46325;-63
2022/11/07 10:00:18;;;;;;;7.43;1.63;;;14.10;50.10;;;;;;5083580;27;47127;-66
2022/11/07 10:02:47;;;;;;;4.00;2.10;;;14.20;49.90;;;;;;5115256;27;46563;-63
2022/11/07 10:05:23;;;;;;;4.47;1.30;;;14.20;49.50;;;;;;5084644;27;46627;-64
2022/11/07 10:08:10;;;;;;;3.10;1.40;;;14.20;49.50;;;;;;5079973;27;46627;-64
2022/11/07 10:10:40;;;;;;;2.90;1.17;;;14.20;49.40;;;;;;5084105;27;46630;-63
2022/11/07 10:13:15;;;;;;;2.37;1.23;;;14.00;48.70;;;;;;5083127;27;46479;-65
2022/11/07 10:15:53;;;;;;;2.67;1.20;;;14.00;48.40;;;;;;5083902;27;46583;-63
2022/11/07 10:18:36;;;;;;;4.20;1.30;;;13.90;48.40;;;;;;5085503;27;46490;-64
2022/11/07 10:21:28;;;;;;;7.30;1.60;;;14.00;48.50;;;;;;5084361;27;46658;-65
2022/11/07 10:24:48;;;;;;;6.00;1.43;;;14.10;48.20;;;;;;5080103;27;46310;-64
2022/11/07 10:27:13;;;;;;;2.93;1.60;;;14.20;48.20;;;;;;5042849;28;46490;-67
2022/11/07 10:29:49;;;;;;;2.30;1.30;;;14.20;48.20;;;;;;5085441;27;46438;-66
2022/11/07 10:33:26;;;;;;;3.90;1.40;;;14.40;47.90;;;;;;5088908;27;46434;-66
2022/11/07 10:36:01;;;;;;;6.50;1.30;;;14.50;46.80;;;;;;5027275;28;46571;-64
2022/11/07 10:38:30;;;;;;;2.93;1.17;;;14.50;46.10;;;;;;5039667;28;46486;-65
2022/11/07 10:40:55;;;;;;;2.47;1.30;;;14.40;45.50;;;;;;5061757;27;46417;-65
2022/11/07 10:43:40;;;;;;;2.70;1.40;;;14.40;46.20;;;;;;5088130;27;46606;-66
2022/11/07 10:46:19;;;;;;;4.83;1.33;;;14.50;46.10;;;;;;5083837;27;47249;-65
2022/11/07 10:48:53;;;;;;;3.67;1.50;;;14.50;45.80;;;;;;5085574;27;46312;-65
2022/11/07 10:51:19;;;;;;;3.77;1.13;;;14.40;45.90;;;;;;5114335;27;46371;-64
2022/11/07 10:53:44;;;;;;;2.60;1.17;;;14.30;45.80;;;;;;5087659;27;46322;-64
2022/11/07 10:56:12;;;;;;;3.50;1.70;;;14.20;46.10;;;;;;5083538;27;46284;-67
2022/11/07 10:58:47;;;;;;;2.83;1.50;;;14.10;45.60;;;;;;5082027;27;46503;-64
2022/11/07 11:01:12;;;;;;;2.47;1.10;;;14.00;46.20;;;;;;5079166;27;46546;-65
2022/11/07 11:03:41;;;;;;;3.27;1.40;;;14.00;46.30;;;;;;5085286;27;47622;-64
2022/11/07 11:06:32;;;;;;;2.80;1.20;;;14.00;46.50;;;;;;5086165;27;46501;-64
2022/11/07 11:09:10;;;;;;;3.77;1.20;;;13.90;46.30;;;;;;5082684;27;46519;-64
2022/11/07 11:11:36;;;;;;;4.90;1.07;;;14.00;45.50;;;;;;5078271;27;47041;-66
2022/11/07 11:14:17;;;;;;;4.57;1.37;;;14.00;46.00;;;;;;5079001;27;47493;-65
2022/11/07 11:16:43;;;;;;;4.63;1.60;;;14.00;46.30;;;;;;5086839;27;46495;-66
2022/11/07 11:19:26;;;;;;;3.80;1.23;;;13.90;46.40;;;;;;5083346;27;46727;-64
2022/11/07 11:21:54;;;;;;;2.97;1.10;;;13.80;46.60;;;;;;5078649;27;45827;-64
2022/11/07 11:24:32;;;;;;;3.10;1.23;;;13.90;47.00;;;;;;5079079;27;46478;-65
2022/11/07 11:27:03;;;;;;;3.80;1.07;;;13.90;46.80;;;;;;5081055;27;46581;-65
2022/11/07 11:29:44;;;;;;;3.20;1.60;;;14.00;46.70;;;;;;5078853;27;46421;-65
2022/11/07 11:32:51;;;;;;;3.53;1.27;;;13.90;46.40;;;;;;5078543;27;46487;-65
2022/11/07 11:35:37;;;;;;;3.90;1.20;;;14.00;46.10;;;;;;5071229;27;46683;-64
2022/11/07 11:38:23;;;;;;;2.80;1.13;;;14.20;46.10;;;;;;5084159;27;46382;-64
2022/11/07 11:40:59;;;;;;;7.37;1.40;;;14.40;45.80;;;;;;5113573;27;45898;-67
2022/11/07 11:43:32;;;;;;;4.10;1.30;;;14.40;45.50;;;;;;5082315;27;46459;-64
2022/11/07 11:46:20;;;;;;;4.70;1.23;;;14.50;45.60;;;;;;5085782;27;46502;-67
2022/11/07 11:48:53;;;;;;;3.07;1.30;;;14.60;45.60;;;;;;5085790;27;46474;-64
2022/11/07 11:51:35;;;;;;;4.53;1.30;;;14.70;46.80;;;;;;5081614;27;46425;-64
2022/11/07 11:54:01;;;;;;;6.50;1.50;;;14.60;45.20;;;;;;5096575;27;46803;-65
2022/11/07 11:56:54;;;;;;;3.10;1.20;;;14.70;45.20;;;;;;5084029;27;46862;-65
2022/11/07 11:59:27;;;;;;;2.40;1.10;;;14.70;44.30;;;;;;5087616;27;46331;-66
2022/11/07 12:02:26;;;;;;;4.70;1.50;;;14.90;43.20;;;;;;5085179;27;45873;-67
2022/11/07 12:05:06;;;;;;;2.30;1.20;;;15.00;44.40;;;;;;5084506;27;46458;-64
2022/11/07 12:07:48;;;;;;;2.47;1.40;;;15.20;43.80;;;;;;5084880;27;46502;-65
2022/11/07 12:10:18;;;;;;;2.60;1.30;;;15.40;43.40;;;;;;5088178;27;46698;-65
2022/11/07 12:12:53;;;;;;;3.90;1.30;;;15.50;43.50;;;;;;5080618;27;46386;-67
2022/11/07 12:15:34;;;;;;;3.50;1.23;;;15.70;42.60;;;;;;5084410;27;46938;-63
2022/11/07 12:18:08;;;;;;;2.27;1.20;;;15.70;43.80;;;;;;5083496;27;46653;-67
2022/11/07 12:20:58;;;;;;;2.60;1.40;;;15.80;43.70;;;;;;5083674;27;46530;-67
2022/11/07 12:24:06;;;;;;;3.77;1.30;;;15.80;43.40;;;;;;5082183;27;46406;-67
2022/11/07 12:26:56;;;;;;;3.00;1.10;;;15.80;43.50;;;;;;5081245;27;46467;-65
2022/11/07 12:30:02;;;;;;;5.10;1.47;;;15.60;43.10;;;;;;5082890;27;46658;-64
2022/11/07 12:32:45;;;;;;;3.77;1.37;;;15.30;43.30;;;;;;5085027;27;46462;-66
2022/11/07 12:35:29;;;;;;;2.57;1.10;;;15.20;43.20;;;;;;5088241;27;46435;-65
2022/11/07 12:38:09;;;;;;;4.03;1.20;;;15.10;43.20;;;;;;5086892;27;46382;-64
2022/11/07 12:40:58;;;;;;;3.00;1.27;;;15.10;43.60;;;;;;5086075;27;46809;-65
2022/11/07 12:43:36;;;;;;;3.50;1.23;;;15.10;43.50;;;;;;5119420;27;46411;-63
2022/11/07 12:46:35;;;;;;;2.40;1.20;;;15.10;43.40;;;;;;5088451;27;46161;-64
2022/11/07 12:49:34;;;;;;;2.97;1.27;;;15.00;43.00;;;;;;5092776;27;46316;-65
2022/11/07 12:52:38;;;;;;;2.70;1.20;;;15.10;42.20;;;;;;5086773;27;46404;-65
2022/11/07 12:55:30;;;;;;;2.40;1.10;;;15.20;42.20;;;;;;5118104;27;46500;-63
2022/11/07 12:57:57;;;;;;;2.63;1.33;;;15.20;43.20;;;;;;5089304;27;46327;-65
2022/11/07 13:00:25;;;;;;;5.87;1.40;;;15.30;43.30;;;;;;5122624;27;46507;-65
2022/11/07 13:03:30;;;;;;;2.07;1.10;;;15.30;43.30;;;;;;5084959;27;46125;-64
2022/11/07 13:06:14;;;;;;;2.67;1.20;;;15.30;43.30;;;;;;5053237;27;46432;-66
2022/11/07 13:08:47;;;;;;;2.73;1.20;;;15.40;43.30;;;;;;5119940;27;46534;-64
2022/11/07 13:11:20;;;;;;;4.20;1.60;;;15.30;42.20;;;;;;5087719;27;46448;-66
2022/11/07 13:14:13;;;;;;;3.17;1.03;;;15.30;43.30;;;;;;5079263;27;46583;-66
2022/11/07 13:16:57;;;;;;;6.00;1.40;;;14.70;42.70;;;;;;5084915;27;46364;-65
2022/11/07 13:19:34;;;;;;;4.83;1.60;;;15.20;43.20;;;;;;5087374;27;46486;-66
2022/11/07 13:22:02;;;;;;;3.80;1.67;;;15.20;42.10;;;;;;5083158;27;46346;-64